Plainfield, Illinois
Current Conditions -  °F | °C
As of 5:35 PM on Thursday 18 Dec 2014 (Local Time) from KLOT Reporting Station
Overcast Overcast  
Wind Chill: -7°   Ceiling: 2400
Heat Index: -4°   Visibility: 10mi
Dew Point: -7°   Wind: 5mph
Humidity: 78%   Direction: 270°W
Pressure: 30.25"   Gusts: NA
Location:  41.62°N, 88.2°W
Report Text: KLOT 182335Z AUTO 27004KT 10SM OVC024 M04/M07 A3025 RMK AO2 T10371071
Loading
Personal Weather Stations






























Interactive Weather Map New forecast layout! Learn more

10-Day Weather Forecast

Advertisements
Track Severe Weather on mobile